Time;durP1;ratioP1;P1;durP2;ratioP2;P2;SDS_P1;SDS_P2;PMS_P1;PMS_P2;Temp;Humidity;BMP_temperature;BMP_pressure;BME280_temperature;BME280_humidity;BME280_pressure;Samples;Min_cycle;Max_cycle;Signal;HPM_P1;HPM_P2
2022/12/21 00:00:17;;;;;;;34.75;22.30;;;;;;;6.88;100.00;100818.28;4980737;28;20196;-44
2022/12/21 00:02:43;;;;;;;39.08;24.02;;;;;;;6.80;100.00;100827.31;4983339;28;20206;-42
2022/12/21 00:05:09;;;;;;;41.47;25.10;;;;;;;6.76;100.00;100832.75;4984369;28;20178;-43
2022/12/21 00:07:35;;;;;;;36.58;21.25;;;;;;;6.83;100.00;100825.50;4979251;28;20541;-43
2022/12/21 00:10:00;;;;;;;34.95;23.67;;;;;;;6.75;100.00;100825.66;4980581;28;20240;-42
2022/12/21 00:12:26;;;;;;;31.08;21.00;;;;;;;6.72;100.00;100828.41;4995962;28;20641;-42
2022/12/21 00:14:51;;;;;;;28.70;20.63;;;;;;;6.78;100.00;100833.59;4982600;28;20194;-43
2022/12/21 00:17:17;;;;;;;35.90;21.92;;;;;;;6.68;100.00;100832.06;4976506;28;20211;-41
2022/12/21 00:19:43;;;;;;;36.10;23.35;;;;;;;6.69;100.00;100831.13;4981873;28;20260;-40
2022/12/21 00:22:09;;;;;;;31.27;21.45;;;;;;;6.71;100.00;100832.88;4978376;28;20695;-41
2022/12/21 00:24:35;;;;;;;33.92;22.45;;;;;;;6.68;100.00;100826.72;4980926;28;20177;-43
2022/12/21 00:27:00;;;;;;;31.38;22.63;;;;;;;6.63;100.00;100833.94;4975688;28;20649;-43
2022/12/21 00:29:26;;;;;;;41.05;24.83;;;;;;;6.64;100.00;100830.34;4980683;28;20196;-43
2022/12/21 00:31:53;;;;;;;39.72;24.02;;;;;;;6.62;100.00;100830.38;4977654;28;20213;-42
2022/12/21 00:34:21;;;;;;;35.72;23.63;;;;;;;6.63;100.00;100821.50;4975187;28;20194;-44
2022/12/21 00:36:48;;;;;;;47.22;25.95;;;;;;;6.57;100.00;100811.84;4982812;28;20185;-44
2022/12/21 00:39:15;;;;;;;40.85;23.88;;;;;;;6.56;100.00;100801.25;4978145;28;20661;-42
2022/12/21 00:41:42;;;;;;;48.33;25.15;;;;;;;6.56;100.00;100806.59;4974204;28;20232;-43
2022/12/21 00:44:09;;;;;;;31.20;21.30;;;;;;;6.64;100.00;100809.06;5014866;23;20701;-46
2022/12/21 00:46:35;;;;;;;37.60;22.98;;;;;;;6.62;100.00;100817.06;5021445;28;20202;-44
2022/12/21 00:49:05;;;;;;;35.75;22.40;;;;;;;6.62;100.00;100814.41;5018003;28;20211;-46
2022/12/21 00:51:33;;;;;;;31.23;21.25;;;;;;;6.61;100.00;100831.31;5002698;28;20269;-44
2022/12/21 00:53:59;;;;;;;34.20;22.17;;;;;;;6.60;100.00;100827.78;4982532;28;20664;-42
2022/12/21 00:56:25;;;;;;;35.35;21.60;;;;;;;6.60;100.00;100827.78;4978823;28;20198;-46
2022/12/21 00:58:51;;;;;;;48.17;25.55;;;;;;;6.55;100.00;100824.31;4984692;28;20217;-45
2022/12/21 01:01:20;;;;;;;36.08;23.00;;;;;;;6.58;100.00;100826.03;4986056;28;20235;-43
2022/12/21 01:03:46;;;;;;;36.70;21.52;;;;;;;6.60;100.00;100833.09;4995951;28;20292;-40
2022/12/21 01:06:14;;;;;;;38.72;23.10;;;;;;;6.64;100.00;100833.88;4977426;28;20237;-42
2022/12/21 01:08:40;;;;;;;32.78;21.58;;;;;;;6.66;100.00;100831.22;4984317;28;20282;-46
2022/12/21 01:11:06;;;;;;;41.95;23.23;;;;;;;6.64;100.00;100830.34;4982655;28;20528;-45
2022/12/21 01:13:32;;;;;;;38.90;23.67;;;;;;;6.59;100.00;100844.66;4982616;28;20248;-42
2022/12/21 01:15:58;;;;;;;39.05;23.73;;;;;;;6.60;100.00;100834.88;4991616;28;20265;-42
2022/12/21 01:18:24;;;;;;;40.63;23.30;;;;;;;6.52;100.00;100835.03;4989462;28;20623;-43
2022/12/21 01:20:56;;;;;;;33.22;20.25;;;;;;;6.59;100.00;100855.28;4990242;28;20232;-45
2022/12/21 01:23:23;;;;;;;43.53;21.83;;;;;;;6.58;100.00;100848.22;4983360;28;20209;-45
2022/12/21 01:25:49;;;;;;;41.28;22.85;;;;;;;6.58;100.00;100861.53;4985833;28;20210;-43
2022/12/21 01:28:15;;;;;;;41.63;22.92;;;;;;;6.56;100.00;100860.69;4984613;28;20194;-43
2022/12/21 01:30:41;;;;;;;43.78;22.23;;;;;;;6.60;100.00;100865.03;4986206;28;20255;-44
2022/12/21 01:33:13;;;;;;;46.47;24.15;;;;;;;6.50;100.00;100846.63;4981086;28;20194;-41
2022/12/21 01:35:40;;;;;;;41.22;22.27;;;;;;;6.49;100.00;100842.22;4983738;28;20193;-42
2022/12/21 01:38:06;;;;;;;49.95;23.67;;;;;;;6.47;100.00;100844.94;4984242;28;20243;-45
2022/12/21 01:40:32;;;;;;;38.53;22.05;;;;;;;6.49;100.00;100836.88;4985353;28;20183;-46
2022/12/21 01:42:58;;;;;;;34.80;20.58;;;;;;;6.49;100.00;100835.09;4980984;28;20213;-42
2022/12/21 01:45:31;;;;;;;35.92;20.45;;;;;;;6.48;100.00;100832.50;4981994;28;20190;-44
2022/12/21 01:47:59;;;;;;;34.97;20.73;;;;;;;6.48;100.00;100824.50;4978394;28;20277;-42
2022/12/21 01:50:48;;;;;;;39.83;21.33;;;;;;;6.34;100.00;100840.75;4971165;28;20205;-45
2022/12/21 01:53:28;;;;;;;45.28;22.88;;;;;;;6.28;100.00;100830.25;4991353;28;20285;-47
2022/12/21 01:55:57;;;;;;;46.03;21.58;;;;;;;6.31;100.00;100835.50;4990814;28;20220;-43
2022/12/21 01:58:27;;;;;;;40.10;20.30;;;;;;;6.34;100.00;100822.09;4989201;28;20287;-43
2022/12/21 02:00:55;;;;;;;49.30;23.42;;;;;;;6.23;100.00;100824.13;4992028;28;20551;-48
2022/12/21 02:03:24;;;;;;;45.00;22.50;;;;;;;6.21;100.00;100805.56;4992462;28;20162;-46
2022/12/21 02:06:10;;;;;;;45.83;22.65;;;;;;;6.17;100.00;100815.38;4991813;28;20196;-44
2022/12/21 02:08:37;;;;;;;43.30;22.40;;;;;;;6.18;100.00;100810.91;4991792;28;20172;-41
2022/12/21 02:11:05;;;;;;;32.92;19.35;;;;;;;6.25;100.00;100822.31;4991422;28;20722;-42
2022/12/21 02:13:31;;;;;;;31.98;19.92;;;;;;;6.13;100.00;100805.69;4993292;28;20173;-43
2022/12/21 02:15:59;;;;;;;38.42;21.25;;;;;;;6.17;100.00;100804.72;4993290;28;20216;-45
2022/12/21 02:18:51;;;;;;;31.35;18.98;;;;;;;6.22;100.00;100795.78;4992827;28;20223;-46
2022/12/21 02:21:29;;;;;;;39.95;21.10;;;;;;;6.16;100.00;100810.94;4991892;28;20201;-42
2022/12/21 02:24:19;;;;;;;31.00;18.20;;;;;;;6.15;100.00;100814.53;4991480;28;20675;-45
2022/12/21 02:27:18;;;;;;;28.02;17.83;;;;;;;6.14;100.00;100820.75;4992997;28;20216;-41
2022/12/21 02:30:11;;;;;;;32.95;20.42;;;;;;;6.05;100.00;100815.59;4975192;28;20192;-42
2022/12/21 02:32:52;;;;;;;42.65;22.27;;;;;;;6.02;100.00;100807.69;4985941;28;20217;-44
2022/12/21 02:35:35;;;;;;;43.08;23.08;;;;;;;6.13;100.00;100811.00;4991426;28;20177;-44
2022/12/21 02:38:38;;;;;;;36.25;21.17;;;;;;;6.12;100.00;100816.34;4990997;28;20223;-44
2022/12/21 02:41:31;;;;;;;51.40;22.48;;;;;;;6.09;100.00;100819.97;4991059;28;20201;-43
2022/12/21 02:44:24;;;;;;;45.63;23.23;;;;;;;6.12;100.00;100800.41;4991063;28;20261;-44
2022/12/21 02:47:11;;;;;;;38.78;22.05;;;;;;;6.14;100.00;100815.44;4991156;28;20184;-43
2022/12/21 02:49:45;;;;;;;38.40;21.70;;;;;;;6.10;100.00;100811.09;5001983;28;20236;-48
2022/12/21 02:52:18;;;;;;;48.88;24.35;;;;;;;6.17;100.00;100835.78;4990862;28;20219;-45
2022/12/21 02:54:45;;;;;;;43.13;23.85;;;;;;;6.09;100.00;100827.06;4990659;28;20550;-44
2022/12/21 02:57:10;;;;;;;52.35;24.27;;;;;;;6.01;100.00;100816.56;4992143;28;20260;-45
2022/12/21 02:59:44;;;;;;;42.15;21.30;;;;;;;6.09;100.00;100816.44;4990961;28;20243;-44
2022/12/21 03:02:33;;;;;;;49.60;24.67;;;;;;;6.10;100.00;100831.47;4990608;28;20204;-44
2022/12/21 03:05:23;;;;;;;49.53;25.27;;;;;;;6.06;100.00;100838.66;4963675;28;20861;-46
2022/12/21 03:08:16;;;;;;;49.30;23.95;;;;;;;6.13;100.00;100839.41;4990756;28;20702;-43
2022/12/21 03:10:59;;;;;;;55.25;25.52;;;;;;;6.11;100.00;100836.75;4984777;28;20287;-46
2022/12/21 03:13:48;;;;;;;46.58;23.45;;;;;;;6.14;100.00;100841.16;4980355;28;20212;-44
2022/12/21 03:16:16;;;;;;;58.67;25.67;;;;;;;6.10;100.00;100837.69;4975466;28;20669;-45
2022/12/21 03:18:54;;;;;;;49.78;26.45;;;;;;;6.10;100.00;100827.06;4983996;28;20601;-47
2022/12/21 03:21:28;;;;;;;63.15;27.80;;;;;;;6.06;100.00;100827.13;4988516;28;20209;-49
2022/12/21 03:24:02;;;;;;;56.38;25.30;;;;;;;6.08;100.00;100830.63;4979913;28;20185;-48
2022/12/21 03:26:34;;;;;;;63.55;27.23;;;;;;;6.07;100.00;100827.09;4978234;28;20186;-44
2022/12/21 03:29:02;;;;;;;65.07;27.17;;;;;;;6.04;100.00;100824.50;4975720;28;20686;-44
2022/12/21 03:31:33;;;;;;;60.55;25.92;;;;;;;6.03;100.00;100825.41;4980360;28;20220;-48
2022/12/21 03:34:20;;;;;;;54.20;25.02;;;;;;;6.06;100.00;100827.13;4975564;28;20288;-43
2022/12/21 03:37:09;;;;;;;66.78;27.35;;;;;;;6.03;100.00;100835.16;4985202;28;20592;-44
2022/12/21 03:39:40;;;;;;;49.05;23.08;;;;;;;6.04;100.00;100836.94;4977383;28;20260;-45
2022/12/21 03:42:12;;;;;;;60.28;25.50;;;;;;;5.99;100.00;100826.34;4981648;28;20201;-45
2022/12/21 03:44:44;;;;;;;63.17;27.20;;;;;;;5.94;100.00;100825.53;4984729;28;20668;-43
2022/12/21 03:47:21;;;;;;;67.00;27.27;;;;;;;5.91;100.00;100833.59;4976022;28;20251;-44
2022/12/21 03:49:55;;;;;;;56.45;25.70;;;;;;;5.95;100.00;100820.25;4988156;28;20193;-47
2022/12/21 03:52:28;;;;;;;59.75;26.27;;;;;;;5.92;100.00;100817.59;4983598;28;20222;-49
2022/12/21 03:55:06;;;;;;;65.13;26.20;;;;;;;5.88;100.00;100818.59;4977393;28;20186;-49
2022/12/21 03:57:33;;;;;;;53.55;25.50;;;;;;;5.90;100.00;100808.78;4982016;28;20213;-47
2022/12/21 04:00:01;;;;;;;75.72;27.08;;;;;;;5.84;100.00;100813.31;4982438;28;20344;-46
2022/12/21 04:02:37;;;;;;;58.97;24.70;;;;;;;5.85;100.00;100815.97;4982206;28;20243;-49
2022/12/21 04:05:17;;;;;;;66.10;26.17;;;;;;;5.89;100.00;100807.03;4981416;28;20196;-47
2022/12/21 04:07:45;;;;;;;73.53;27.50;;;;;;;5.87;100.00;100808.84;4983066;28;20189;-47
2022/12/21 04:10:14;;;;;;;64.45;24.10;;;;;;;5.85;100.00;100812.44;4978256;28;20225;-46
2022/12/21 04:12:40;;;;;;;60.40;25.70;;;;;;;5.81;100.00;100830.22;4980056;28;20239;-49
2022/12/21 04:15:08;;;;;;;58.25;25.38;;;;;;;5.82;100.00;100813.38;4981150;28;20275;-47
2022/12/21 04:17:34;;;;;;;50.78;22.00;;;;;;;5.84;100.00;100810.66;4983445;28;20232;-48
2022/12/21 04:20:02;;;;;;;57.97;23.90;;;;;;;5.75;100.00;100817.03;4983960;28;20217;-46
2022/12/21 04:28:08;;;;;;;56.28;20.35;;;;;;;5.70;100.00;100802.97;4980879;28;20193;-48
2022/12/21 04:30:42;;;;;;;56.30;21.58;;;;;;;5.70;100.00;100814.47;4983226;28;21200;-48
2022/12/21 04:33:09;;;;;;;62.75;22.55;;;;;;;5.67;100.00;100808.34;4992406;28;20193;-50
2022/12/21 04:35:35;;;;;;;51.65;20.52;;;;;;;5.69;100.00;100807.41;4988608;28;20182;-47
2022/12/21 04:38:02;;;;;;;51.65;19.75;;;;;;;5.67;100.00;100808.34;4983076;28;20710;-46
2022/12/21 04:40:28;;;;;;;44.15;17.17;;;;;;;5.74;100.00;100818.81;4986120;28;20186;-49
2022/12/21 04:42:53;;;;;;;40.70;17.80;;;;;;;5.73;100.00;100805.56;4986030;28;20328;-47
2022/12/21 04:45:19;;;;;;;49.17;19.33;;;;;;;5.77;100.00;100810.81;4979604;28;20702;-46
2022/12/21 04:47:45;;;;;;;60.47;18.98;;;;;;;5.67;100.00;100806.56;4987195;28;20177;-46
2022/12/21 04:50:11;;;;;;;51.08;19.55;;;;;;;5.69;100.00;100806.53;4985589;28;20189;-50
2022/12/21 04:52:36;;;;;;;78.05;19.40;;;;;;;5.61;100.00;100805.78;4985905;28;20221;-50
2022/12/21 04:55:02;;;;;;;48.15;17.95;;;;;;;5.60;100.00;100807.59;4984616;28;20192;-48
2022/12/21 04:57:29;;;;;;;47.78;18.30;;;;;;;5.62;100.00;100811.09;4984215;28;20185;-48
2022/12/21 04:59:54;;;;;;;88.07;20.08;;;;;;;5.60;100.00;100804.94;4981558;28;20185;-47
2022/12/21 05:02:20;;;;;;;47.03;18.15;;;;;;;5.55;100.00;100804.09;4985218;28;20221;-49
2022/12/21 05:04:45;;;;;;;60.13;18.33;;;;;;;5.55;100.00;100818.28;4986145;28;20194;-47
2022/12/21 05:07:11;;;;;;;51.85;18.63;;;;;;;5.61;100.00;100819.94;4986383;28;20419;-47
2022/12/21 05:09:36;;;;;;;50.30;17.98;;;;;;;5.65;100.00;100824.31;4986630;28;20712;-48
2022/12/21 05:12:02;;;;;;;179.35;21.73;;;;;;;5.55;100.00;100826.28;4977564;28;20250;-47
2022/12/21 05:14:27;;;;;;;56.03;17.98;;;;;;;5.64;100.00;100822.56;4984551;28;20272;-48
2022/12/21 05:16:53;;;;;;;96.05;18.98;;;;;;;5.48;100.00;100821.94;4977292;28;20671;-49
2022/12/21 05:19:27;;;;;;;74.50;19.58;;;;;;;5.46;100.00;100822.88;4988894;28;20908;-47
2022/12/21 05:21:53;;;;;;;108.70;19.00;;;;;;;5.45;100.00;100827.31;4987238;28;20209;-47
2022/12/21 05:24:18;;;;;;;71.47;18.33;;;;;;;5.51;100.00;100829.88;4985374;28;20189;-47
2022/12/21 05:26:44;;;;;;;131.55;20.73;;;;;;;5.45;100.00;100829.97;4986069;28;20189;-49
2022/12/21 05:29:12;;;;;;;77.63;19.27;;;;;;;5.47;100.00;100830.84;4990092;28;20200;-49
2022/12/21 05:31:37;;;;;;;46.88;17.30;;;;;;;5.54;100.00;100844.88;4987846;28;20799;-47
2022/12/21 05:34:03;;;;;;;63.55;18.52;;;;;;;5.47;100.00;100830.84;4984377;28;20268;-47
2022/12/21 05:36:29;;;;;;;101.90;17.25;;;;;;;5.40;100.00;100845.13;4984833;28;20185;-47
2022/12/21 05:38:55;;;;;;;59.55;15.25;;;;;;;5.36;100.00;100831.00;4983130;28;20189;-48
2022/12/21 05:41:20;;;;;;;73.20;14.32;;;;;;;5.30;100.00;100836.41;4986741;28;20613;-50
2022/12/21 05:43:46;;;;;;;48.10;14.82;;;;;;;5.29;100.00;100841.75;4985423;28;20229;-48
2022/12/21 05:46:12;;;;;;;40.33;12.82;;;;;;;5.31;100.00;100835.53;4984160;28;20276;-48
2022/12/21 05:48:38;;;;;;;58.00;13.90;;;;;;;5.27;100.00;100835.59;4981754;28;20194;-48
2022/12/21 05:51:11;;;;;;;56.17;14.02;;;;;;;5.23;100.00;100836.56;4981149;28;20762;-48
2022/12/21 05:53:40;;;;;;;39.90;13.30;;;;;;;5.33;100.00;100833.69;4980671;28;20316;-48
2022/12/21 05:56:06;;;;;;;42.00;14.30;;;;;;;5.28;100.00;100842.66;4978951;28;20213;-46
2022/12/21 05:58:31;;;;;;;43.67;14.05;;;;;;;5.31;100.00;100848.81;4983908;28;20181;-47
2022/12/21 06:01:05;;;;;;;45.45;14.00;;;;;;;5.20;100.00;100856.06;4987322;28;20233;-48
2022/12/21 06:03:30;;;;;;;46.72;14.55;;;;;;;5.24;100.00;100846.28;4985532;28;20181;-48
2022/12/21 06:06:22;;;;;;;51.25;15.40;;;;;;;5.14;100.00;100845.56;4990261;28;20675;-47
2022/12/21 06:08:47;;;;;;;40.88;14.07;;;;;;;5.12;100.00;100842.91;4983900;28;20672;-48
2022/12/21 06:11:16;;;;;;;50.33;14.07;;;;;;;5.22;100.00;100832.13;4980241;28;20216;-47
2022/12/21 06:13:41;;;;;;;54.97;15.85;;;;;;;5.18;100.00;100831.28;4987411;28;20174;-50
2022/12/21 06:16:12;;;;;;;41.97;14.50;;;;;;;5.18;100.00;100841.06;4975543;28;20193;-47
2022/12/21 06:18:39;;;;;;;44.70;14.98;;;;;;;5.18;100.00;100846.34;4984045;28;20321;-48
2022/12/21 06:21:06;;;;;;;37.38;14.00;;;;;;;5.21;100.00;100841.88;4987759;28;20198;-47
2022/12/21 06:23:31;;;;;;;45.78;15.20;;;;;;;5.18;100.00;100843.72;4981884;28;20248;-47
2022/12/21 06:25:58;;;;;;;37.10;14.60;;;;;;;5.17;100.00;100842.84;4981160;28;20214;-47
2022/12/21 06:28:25;;;;;;;43.58;15.68;;;;;;;5.22;100.00;100848.06;4983194;28;20188;-49
2022/12/21 06:30:52;;;;;;;53.35;15.20;;;;;;;5.20;100.00;100833.94;4980883;28;20206;-48
2022/12/21 06:33:22;;;;;;;62.20;17.27;;;;;;;5.11;100.00;100834.97;4975186;28;20218;-50
2022/12/21 06:35:54;;;;;;;44.13;15.15;;;;;;;5.11;100.00;100834.97;4978066;28;20551;-48
2022/12/21 06:38:19;;;;;;;45.95;14.52;;;;;;;5.11;100.00;100841.13;4975230;28;20269;-47
2022/12/21 06:40:54;;;;;;;39.80;14.18;;;;;;;5.15;100.00;100828.69;4978586;28;20192;-47
2022/12/21 06:43:20;;;;;;;42.40;14.88;;;;;;;5.17;100.00;100834.88;4976159;28;20207;-47
2022/12/21 06:45:55;;;;;;;48.28;15.30;;;;;;;5.17;100.00;100850.81;4977044;28;20190;-48
2022/12/21 06:48:22;;;;;;;53.95;16.23;;;;;;;5.07;100.00;100852.75;4977136;28;20229;-45
2022/12/21 06:50:57;;;;;;;57.22;16.85;;;;;;;5.06;100.00;100844.78;4980237;28;20208;-47
2022/12/21 06:53:25;;;;;;;74.57;16.60;;;;;;;5.05;100.00;100840.34;4972710;28;20228;-46
2022/12/21 06:55:59;;;;;;;71.32;15.48;;;;;;;4.99;100.00;100853.75;4972316;28;20196;-47
2022/12/21 06:58:24;;;;;;;38.35;14.73;;;;;;;5.01;100.00;100852.81;4991130;28;20648;-46
2022/12/21 07:00:50;;;;;;;33.45;13.35;;;;;;;5.03;100.00;100853.69;4992040;28;20219;-43
2022/12/21 07:03:16;;;;;;;66.35;15.27;;;;;;;4.87;100.00;100847.69;4991483;28;20173;-43
2022/12/21 07:05:41;;;;;;;56.72;14.70;;;;;;;4.91;100.00;100859.16;4991752;28;20456;-45
2022/12/21 07:08:07;;;;;;;70.55;14.55;;;;;;;4.86;100.00;100867.19;4991751;28;20185;-46
2022/12/21 07:10:33;;;;;;;50.75;14.40;;;;;;;4.85;100.00;100870.72;4991934;28;20161;-49
2022/12/21 07:12:59;;;;;;;39.63;14.20;;;;;;;4.94;100.00;100875.03;4991732;28;20768;-45
2022/12/21 07:15:24;;;;;;;42.10;14.32;;;;;;;4.94;100.00;100867.06;4982351;28;20166;-47
2022/12/21 07:17:49;;;;;;;41.85;13.75;;;;;;;4.89;100.00;100872.44;4977942;28;20190;-48
2022/12/21 07:20:15;;;;;;;53.30;14.02;;;;;;;4.88;100.00;100872.50;4975389;28;20610;-46
2022/12/21 07:22:40;;;;;;;41.67;12.63;;;;;;;4.87;100.00;100873.38;4983332;28;20239;-45
2022/12/21 07:25:06;;;;;;;42.38;12.80;;;;;;;4.86;100.00;100871.63;4976428;28;20201;-46
2022/12/21 07:27:32;;;;;;;30.05;12.65;;;;;;;4.90;100.00;100876.00;4975149;28;20240;-46
2022/12/21 07:29:57;;;;;;;39.63;12.55;;;;;;;4.93;100.00;100871.50;4973403;28;20194;-47
2022/12/21 07:32:23;;;;;;;40.28;13.13;;;;;;;4.86;100.00;100872.50;4974233;28;20202;-46
2022/12/21 07:34:48;;;;;;;50.58;12.60;;;;;;;4.81;100.00;100874.34;4972424;28;20280;-47
2022/12/21 07:37:14;;;;;;;37.90;12.18;;;;;;;4.78;100.00;100874.38;4974400;28;20569;-47
2022/12/21 07:39:39;;;;;;;33.10;11.48;;;;;;;4.74;100.00;100881.53;4985318;28;20190;-47
2022/12/21 07:42:05;;;;;;;26.00;11.20;;;;;;;4.80;100.00;100887.63;4976018;28;20662;-47
2022/12/21 07:44:32;;;;;;;29.35;10.75;;;;;;;4.76;100.00;100889.44;4988482;28;20687;-46
2022/12/21 07:47:10;;;;;;;30.10;9.55;;;;;;;4.70;100.00;100898.38;4985243;28;20202;-48
2022/12/21 07:49:35;;;;;;;32.00;10.30;;;;;;;4.63;100.00;100893.16;4975661;28;20569;-48
2022/12/21 07:52:01;;;;;;;25.88;9.90;;;;;;;4.68;100.00;100899.28;4981606;28;20325;-48
2022/12/21 07:54:27;;;;;;;29.65;9.85;;;;;;;4.67;100.00;100900.19;4984478;28;20186;-46
2022/12/21 07:56:52;;;;;;;26.70;9.23;;;;;;;4.69;100.00;100895.75;4975113;28;20249;-46
2022/12/21 07:59:18;;;;;;;25.23;8.95;;;;;;;4.60;100.00;100891.44;4980529;28;20189;-46
2022/12/21 08:01:44;;;;;;;24.08;9.18;;;;;;;4.64;100.00;100893.16;4980138;28;20693;-47
2022/12/21 08:04:09;;;;;;;25.55;8.95;;;;;;;4.61;100.00;100887.84;4979299;28;20185;-46
2022/12/21 08:06:35;;;;;;;28.25;8.65;;;;;;;4.59;100.00;100889.69;4979342;28;20286;-47
2022/12/21 08:09:00;;;;;;;39.92;8.35;;;;;;;4.54;100.00;100875.59;4977268;28;20217;-48
2022/12/21 08:11:28;;;;;;;24.67;8.43;;;;;;;4.63;100.00;100862.19;4974131;28;20294;-49
2022/12/21 08:13:54;;;;;;;20.27;8.57;;;;;;;4.69;100.00;100875.38;4979205;28;20181;-46
2022/12/21 08:16:20;;;;;;;23.00;9.50;;;;;;;4.67;100.00;100868.34;4987159;28;20672;-47
2022/12/21 08:18:46;;;;;;;37.70;9.63;;;;;;;4.69;100.00;100869.19;4974950;28;20630;-46
2022/12/21 08:21:12;;;;;;;38.35;10.40;;;;;;;4.65;100.00;100864.81;4968915;28;20202;-48
2022/12/21 08:23:39;;;;;;;18.15;9.52;;;;;;;4.77;100.00;100875.28;4972681;28;20193;-48
2022/12/21 08:26:08;;;;;;;35.63;9.55;;;;;;;4.70;100.00;100873.59;4974577;28;20222;-46
2022/12/21 08:28:34;;;;;;;28.98;9.55;;;;;;;4.76;100.00;100865.56;4973638;28;20644;-47
2022/12/21 08:31:08;;;;;;;39.63;10.27;;;;;;;4.78;100.00;100879.69;4986865;28;20477;-47
2022/12/21 08:33:33;;;;;;;39.60;11.05;;;;;;;4.80;100.00;100877.03;4975788;28;20252;-48
2022/12/21 08:35:59;;;;;;;29.05;11.50;;;;;;;4.91;100.00;100875.97;4973077;28;20601;-48
2022/12/21 08:38:24;;;;;;;46.80;13.80;;;;;;;4.83;100.00;100872.56;4981148;28;20611;-49
2022/12/21 08:40:51;;;;;;;27.20;11.35;;;;;;;4.97;100.00;100874.13;4977546;28;20206;-46
2022/12/21 08:43:17;;;;;;;32.25;13.60;;;;;;;4.93;100.00;100882.13;4979565;28;20193;-47
2022/12/21 08:45:43;;;;;;;45.05;15.52;;;;;;;4.98;100.00;100876.75;4980389;28;20455;-48
2022/12/21 08:48:09;;;;;;;45.20;15.20;;;;;;;4.91;100.00;100885.72;4982905;28;20272;-48
2022/12/21 08:50:35;;;;;;;51.50;15.80;;;;;;;4.87;100.00;100870.72;4978455;28;20201;-48
2022/12/21 08:53:00;;;;;;;44.95;14.77;;;;;;;4.82;100.00;100886.72;4980283;28;20680;-46
2022/12/21 08:55:26;;;;;;;39.33;14.05;;;;;;;4.89;100.00;100877.75;4978246;28;20178;-48
2022/12/21 08:57:52;;;;;;;46.92;16.60;;;;;;;4.81;100.00;100881.41;4979580;28;20707;-48
2022/12/21 09:00:17;;;;;;;64.80;17.27;;;;;;;4.86;100.00;100880.47;4983368;28;20239;-46
2022/12/21 09:02:43;;;;;;;31.20;13.75;;;;;;;5.01;100.00;100873.16;4984405;28;20198;-47
2022/12/21 09:05:08;;;;;;;37.95;14.20;;;;;;;4.93;100.00;100883.91;4978021;28;20555;-48
2022/12/21 09:07:34;;;;;;;37.40;14.65;;;;;;;4.94;100.00;100886.56;4972567;28;20641;-47
2022/12/21 09:10:00;;;;;;;31.52;14.13;;;;;;;4.90;100.00;100890.16;4983713;28;20316;-46
2022/12/21 09:12:27;;;;;;;39.47;16.10;;;;;;;4.89;100.00;100883.06;4976922;28;20210;-48
2022/12/21 09:14:52;;;;;;;35.40;15.68;;;;;;;4.92;100.00;100869.78;4982161;28;20185;-45
2022/12/21 09:17:18;;;;;;;44.53;16.27;;;;;;;4.92;100.00;100874.22;4983327;28;20672;-46
2022/12/21 09:19:43;;;;;;;42.38;15.63;;;;;;;4.88;100.00;100897.25;4982513;28;20272;-46
2022/12/21 09:22:09;;;;;;;45.60;15.95;;;;;;;4.85;100.00;100889.31;4986101;28;20246;-47
2022/12/21 09:24:34;;;;;;;38.58;15.40;;;;;;;4.91;100.00;100883.06;4981198;28;20539;-46
2022/12/21 09:27:00;;;;;;;33.85;15.05;;;;;;;4.87;100.00;100884.00;4981227;28;20233;-46
2022/12/21 09:29:25;;;;;;;41.92;15.40;;;;;;;4.86;100.00;100883.13;4981754;28;20647;-46
2022/12/21 09:31:51;;;;;;;38.40;15.07;;;;;;;4.89;100.00;100887.50;4984713;28;20719;-47
2022/12/21 09:34:18;;;;;;;43.35;15.85;;;;;;;4.90;100.00;100883.97;4984030;28;20251;-47
2022/12/21 09:36:44;;;;;;;38.00;16.15;;;;;;;4.94;100.00;100888.31;4981442;28;20201;-47
2022/12/21 09:39:09;;;;;;;41.13;16.90;;;;;;;4.88;100.00;100886.63;4985364;28;20212;-46
2022/12/21 09:41:58;;;;;;;37.95;15.15;;;;;;;4.90;100.00;100892.81;4980015;28;20668;-45
2022/12/21 09:45:02;;;;;;;45.28;16.20;;;;;;;4.90;100.00;100887.50;4975004;28;20242;-47
2022/12/21 09:47:43;;;;;;;53.90;17.15;;;;;;;4.87;100.00;100887.53;4952492;28;20202;-48
2022/12/21 09:50:19;;;;;;;38.72;16.83;;;;;;;4.94;100.00;100897.19;4975887;28;20724;-46
2022/12/21 09:52:49;;;;;;;32.03;15.23;;;;;;;4.99;100.00;100886.50;4978233;28;20244;-44
2022/12/21 09:55:18;;;;;;;37.22;14.70;;;;;;;4.97;100.00;100898.03;4973787;28;20182;-47
2022/12/21 09:57:44;;;;;;;51.70;16.02;;;;;;;5.07;100.00;100894.31;4974358;28;20326;-44
2022/12/21 10:00:17;;;;;;;29.70;13.88;;;;;;;5.16;100.00;100891.56;4984446;28;20189;-45
2022/12/21 10:02:58;;;;;;;34.70;15.63;;;;;;;5.12;100.00;100885.41;4979318;28;20691;-43
2022/12/21 10:05:57;;;;;;;34.72;13.48;;;;;;;5.05;100.00;100889.06;4983764;28;20269;-45
2022/12/21 10:08:59;;;;;;;30.73;13.32;;;;;;;5.14;100.00;100888.91;4979970;28;20216;-45
2022/12/21 10:11:39;;;;;;;26.17;12.98;;;;;;;5.22;100.00;100890.56;4983541;28;20220;-45
2022/12/21 10:14:29;;;;;;;31.02;13.23;;;;;;;5.05;100.00;100883.75;4976442;28;20556;-44
2022/12/21 10:17:33;;;;;;;29.00;12.80;;;;;;;5.15;100.00;100884.47;4981587;28;20220;-43
2022/12/21 10:20:36;;;;;;;26.27;12.93;;;;;;;5.21;100.00;100870.25;4950210;28;20212;-44
2022/12/21 10:23:25;;;;;;;40.17;14.65;;;;;;;5.18;100.00;100864.94;4981167;28;20206;-46
2022/12/21 10:25:58;;;;;;;31.55;14.10;;;;;;;5.25;100.00;100869.28;4974375;28;20178;-45
2022/12/21 10:28:37;;;;;;;36.83;14.52;;;;;;;5.26;100.00;100871.03;4977879;28;20522;-47
2022/12/21 10:31:08;;;;;;;35.05;15.43;;;;;;;5.31;100.00;100862.09;4975949;28;20728;-45
2022/12/21 10:33:39;;;;;;;39.00;14.88;;;;;;;5.37;100.00;100855.78;4975218;28;20189;-44
2022/12/21 10:36:05;;;;;;;33.08;14.60;;;;;;;5.35;100.00;100865.56;4975182;28;20197;-46
2022/12/21 10:38:35;;;;;;;42.42;16.08;;;;;;;5.31;100.00;100855.88;4973861;28;20268;-46
2022/12/21 10:41:12;;;;;;;31.58;14.25;;;;;;;5.31;100.00;100854.13;4978031;28;20687;-46
2022/12/21 10:43:39;;;;;;;38.65;14.30;;;;;;;5.30;100.00;100849.69;4982032;28;20960;-42
2022/12/21 10:46:05;;;;;;;34.75;13.88;;;;;;;5.43;100.00;100831.78;4982065;28;20193;-40
2022/12/21 10:48:32;;;;;;;40.60;15.13;;;;;;;5.40;100.00;100830.94;4976988;28;20268;-42
2022/12/21 10:51:26;;;;;;;34.65;14.10;;;;;;;5.45;100.00;100837.09;4980028;28;20260;-44
2022/12/21 10:54:03;;;;;;;29.23;13.35;;;;;;;5.53;100.00;100844.03;4972547;28;20208;-42
2022/12/21 10:56:32;;;;;;;31.08;13.15;;;;;;;5.50;100.00;100844.06;4978680;28;20488;-42
2022/12/21 10:59:19;;;;;;;26.35;13.60;;;;;;;5.53;100.00;100835.16;4982885;28;20755;-43
2022/12/21 11:01:45;;;;;;;32.60;14.18;;;;;;;5.47;100.00;100835.28;4979907;28;20578;-43
2022/12/21 11:04:27;;;;;;;30.13;13.93;;;;;;;5.47;100.00;100830.84;4989269;28;20194;-42
2022/12/21 11:07:24;;;;;;;34.65;14.48;;;;;;;5.37;100.00;100831.88;4978538;28;20189;-43
2022/12/21 11:10:00;;;;;;;31.20;13.13;;;;;;;5.38;100.00;100833.66;4980106;28;20558;-42
2022/12/21 11:12:27;;;;;;;30.98;13.75;;;;;;;5.25;100.00;100832.97;4986021;28;20649;-42
2022/12/21 11:14:54;;;;;;;28.33;13.65;;;;;;;5.27;100.00;100833.84;4978626;28;20190;-43
2022/12/21 11:17:23;;;;;;;32.65;13.55;;;;;;;5.28;100.00;100814.31;4977303;28;20200;-42
2022/12/21 11:19:54;;;;;;;34.47;13.45;;;;;;;5.24;100.00;100811.75;4976138;28;20256;-43
2022/12/21 11:22:27;;;;;;;26.23;11.85;;;;;;;5.34;100.00;100811.56;4982965;28;20327;-42
2022/12/21 11:24:56;;;;;;;37.13;13.98;;;;;;;5.22;100.00;100813.53;4976392;28;20184;-41
2022/12/21 11:27:26;;;;;;;31.92;13.65;;;;;;;5.27;100.00;100809.03;4980573;28;20280;-39
2022/12/21 11:30:04;;;;;;;32.75;14.88;;;;;;;5.20;100.00;100799.41;4977606;28;20221;-42